This is the latest recevied weather packets stored in our database for station/object HA5CD-6. If no packets are shown the sender has not sent any weather packets the latest 10 day(s).
| Time | Temp. | Humidity | Pressure | Rain* | Wind** | Luminosity | Snow |
|---|---|---|---|---|---|---|---|
| 1777802521 | 22.78° C | 25% | 998 hPa | - | - | - | - |
| 1777801920 | 22.78° C | 27% | 998 hPa | - | - | - | - |
| 1777801320 | 23.33° C | 25% | 998 hPa | - | - | - | - |
| 1777800120 | 23.89° C | 24% | 998 hPa | - | - | - | - |
| 1777799520 | 25.56° C | 22% | 999 hPa | - | - | - | - |
| 1777798920 | 25° C | 23% | 999 hPa | - | - | - | - |
| 1777798320 | 26.67° C | 22% | 999 hPa | - | - | - | - |
| 1777797720 | 24.44° C | 23% | 999 hPa | - | - | - | - |
| 1777797120 | 26.67° C | 22% | 999 hPa | - | - | - | - |
| 1777796520 | 24.44° C | 23% | 999 hPa | - | - | - | - |
| 1777795330 | 25° C | 22% | 999 hPa | - | - | - | - |
| 1777794732 | 24.44° C | 23% | 999 hPa | - | - | - | - |
| 1777794133 | 25.56° C | 24% | 999 hPa | - | - | - | - |
| 1777792928 | 23.33° C | 25% | 999 hPa | - | - | - | - |
| 1777792323 | 25° C | 24% | 999 hPa | - | - | - | - |
| 1777791729 | 23.89° C | 24% | 999 hPa | - | - | - | - |
| 1777790522 | 21.11° C | 28% | 999 hPa | - | - | - | - |
| 1777789926 | 22.78° C | 27% | 999 hPa | - | - | - | - |
| 1777789318 | 22.78° C | 27% | 999 hPa | - | - | - | - |
| 1777788718 | 21.67° C | 28% | 998 hPa | - | - | - | - |
| 1777788118 | 18.33° C | 32% | 998 hPa | - | - | - | - |
| 1777787518 | 19.44° C | 31% | 998 hPa | - | - | - | - |
| 1777786328 | 17.22° C | 33% | 998 hPa | - | - | - | - |
| 1777785718 | 17.78° C | 32% | 998 hPa | - | - | - | - |
| 1777785117 | 17.22° C | 34% | 998 hPa | - | - | - | - |
* Rain since midnight (hover to see other rain measurements)
** Current wind speed in m/s (hover to see current wind gust speed)